createdAt,value
2023-05-01T00:00:28.573Z,67.33
2023-05-01T00:01:28.647Z,68.81
2023-05-01T00:02:28.788Z,70.18
2023-05-01T00:03:28.889Z,70.12
2023-05-01T00:04:29.023Z,70.59
2023-05-01T00:05:28.978Z,70.12
2023-05-01T00:06:29.108Z,70.65
2023-05-01T00:07:29.137Z,71.25
2023-05-01T00:08:29.220Z,72.60
2023-05-01T00:09:29.306Z,73.23
2023-05-01T00:10:29.378Z,73.87
2023-05-01T00:11:29.464Z,74.92
2023-05-01T00:12:29.545Z,73.87
2023-05-01T00:13:29.616Z,73.93
2023-05-01T00:14:29.703Z,74.07
2023-05-01T00:15:29.777Z,74.72
2023-05-01T00:16:29.915Z,75.19
2023-05-01T00:17:29.977Z,75.19
2023-05-01T00:18:30.023Z,75.25
2023-05-01T00:19:30.108Z,75.73
2023-05-01T00:20:30.181Z,76.21
2023-05-01T00:21:30.271Z,76.07
2023-05-01T00:22:30.358Z,75.86
2023-05-01T00:23:30.445Z,77.04
2023-05-01T00:24:30.540Z,76.69
2023-05-01T00:25:36.607Z,74.99
2023-05-01T00:26:30.717Z,72.04
2023-05-01T00:27:30.810Z,69.89
2023-05-01T00:28:30.891Z,70.77
2023-05-01T00:29:30.985Z,72.79
2023-05-01T00:30:31.068Z,74.07
2023-05-01T00:31:31.183Z,74.85
2023-05-01T00:32:31.270Z,75.46
2023-05-01T00:33:31.311Z,76.21
2023-05-01T00:34:31.373Z,75.93
2023-05-01T00:35:31.461Z,76.21
2023-05-01T00:36:31.522Z,77.18
2023-05-01T00:37:31.629Z,77.11
2023-05-01T00:38:31.708Z,77.11
2023-05-01T00:39:31.801Z,77.18
2023-05-01T00:40:31.869Z,77.04
2023-05-01T00:41:31.965Z,76.62
2023-05-01T00:42:32.054Z,76.90
2023-05-01T00:43:32.159Z,77.54
2023-05-01T00:44:32.233Z,78.33
2023-05-01T00:45:32.339Z,78.62
2023-05-01T00:46:32.543Z,78.91
2023-05-01T00:47:32.530Z,78.69
2023-05-01T00:48:32.578Z,77.54
2023-05-01T00:49:32.663Z,76.55
2023-05-01T00:50:32.750Z,76.27
2023-05-01T00:51:32.821Z,76.34
2023-05-01T00:52:32.910Z,76.62
2023-05-01T00:53:32.992Z,76.76
2023-05-01T00:54:33.066Z,76.76
2023-05-01T00:55:33.163Z,75.86
2023-05-01T00:56:39.218Z,74.79
2023-05-01T00:57:33.330Z,73.48
2023-05-01T00:58:33.441Z,72.41
2023-05-01T00:59:33.507Z,71.31
2023-05-01T01:00:33.591Z,70.54
2023-05-01T01:01:33.697Z,70.77
2023-05-01T01:02:33.779Z,70.65
2023-05-01T01:03:33.833Z,70.77
2023-05-01T01:04:33.956Z,71.19
2023-05-01T01:05:33.991Z,71.61
2023-05-01T01:06:34.123Z,71.61
2023-05-01T01:07:34.153Z,72.16
2023-05-01T01:08:34.219Z,72.47
2023-05-01T01:09:34.305Z,72.85
2023-05-01T01:10:34.410Z,73.23
2023-05-01T01:11:34.487Z,73.68
2023-05-01T01:12:34.565Z,73.81
2023-05-01T01:13:34.645Z,74.13
2023-05-01T01:14:34.736Z,74.59
2023-05-01T01:15:34.802Z,74.79
2023-05-01T01:16:34.893Z,74.85
2023-05-01T01:17:35.033Z,75.73
2023-05-01T01:18:35.040Z,75.86
2023-05-01T01:19:35.132Z,76.69
2023-05-01T01:20:35.205Z,77.11
2023-05-01T01:21:35.286Z,77.89
2023-05-01T01:22:35.383Z,78.84
2023-05-01T01:23:35.466Z,79.73
2023-05-01T01:24:35.579Z,79.73
2023-05-01T01:25:35.616Z,80.26
2023-05-01T01:26:35.706Z,81.74
2023-05-01T01:27:42.283Z,81.66
2023-05-01T01:28:35.850Z,82.46
2023-05-01T01:29:35.964Z,82.79
2023-05-01T01:30:36.027Z,83.69
2023-05-01T01:31:36.270Z,84.61
2023-05-01T01:32:36.216Z,85.99
2023-05-01T01:33:36.244Z,87.33
2023-05-01T01:34:36.342Z,88.52
2023-05-01T01:35:36.417Z,87.87
2023-05-01T01:36:36.493Z,88.61
2023-05-01T01:37:36.576Z,88.80
2023-05-01T01:38:36.675Z,89.08
2023-05-01T01:39:36.768Z,89.08
2023-05-01T01:40:36.888Z,89.93
2023-05-01T01:41:36.935Z,91.10
2023-05-01T01:42:37.018Z,90.80
2023-05-01T01:43:37.102Z,91.99
2023-05-01T01:44:37.231Z,91.79
2023-05-01T01:45:37.300Z,93.21
2023-05-01T01:46:37.455Z,93.73
2023-05-01T01:47:37.532Z,93.62
2023-05-01T01:48:37.509Z,93.62
2023-05-01T01:49:37.579Z,92.29
2023-05-01T01:50:37.673Z,91.10
2023-05-01T01:51:37.759Z,90.80
2023-05-01T01:52:37.837Z,89.93
2023-05-01T01:53:37.934Z,89.55
2023-05-01T01:54:38.065Z,89.55
2023-05-01T01:55:38.070Z,89.65
2023-05-01T01:56:38.156Z,90.51
2023-05-01T01:57:38.246Z,91.00
2023-05-01T01:58:44.799Z,92.09
2023-05-01T01:59:38.401Z,92.19
2023-05-01T02:00:38.492Z,93.31
2023-05-01T02:01:38.639Z,93.52
2023-05-01T02:02:38.812Z,93.52
2023-05-01T02:03:38.951Z,93.94
2023-05-01T02:04:38.790Z,94.15
2023-05-01T02:05:38.875Z,93.94
2023-05-01T02:06:39.020Z,94.15
2023-05-01T02:07:39.028Z,93.52
2023-05-01T02:08:39.133Z,93.42
2023-05-01T02:09:39.168Z,93.31
2023-05-01T02:10:39.249Z,92.60
2023-05-01T02:11:39.337Z,92.39
2023-05-01T02:12:39.416Z,92.60
2023-05-01T02:13:39.495Z,93.00
2023-05-01T02:14:39.577Z,92.60
2023-05-01T02:15:39.709Z,91.99
2023-05-01T02:16:39.803Z,92.39
2023-05-01T02:17:39.965Z,92.39
2023-05-01T02:18:39.904Z,91.89
2023-05-01T02:19:39.973Z,92.29
2023-05-01T02:20:40.064Z,91.59
2023-05-01T02:21:40.135Z,91.20
2023-05-01T02:22:40.221Z,91.10
2023-05-01T02:23:40.310Z,90.61
2023-05-01T02:24:40.376Z,91.29
2023-05-01T02:25:40.456Z,91.20
2023-05-01T02:26:40.542Z,91.49
2023-05-01T02:27:40.647Z,91.79
2023-05-01T02:28:40.696Z,91.99
2023-05-01T02:29:46.848Z,91.89
2023-05-01T02:30:40.870Z,92.09
2023-05-01T02:31:41.022Z,92.39
2023-05-01T02:32:41.075Z,91.69
2023-05-01T02:33:41.115Z,90.90
2023-05-01T02:34:41.194Z,91.39
2023-05-01T02:35:41.275Z,91.29
2023-05-01T02:36:41.360Z,91.10
2023-05-01T02:37:41.449Z,91.20
2023-05-01T02:38:41.532Z,91.39
2023-05-01T02:39:41.631Z,91.59
2023-05-01T02:40:41.696Z,91.20
2023-05-01T02:41:41.782Z,91.79
2023-05-01T02:42:41.845Z,92.19
2023-05-01T02:43:41.950Z,91.39
2023-05-01T02:44:42.024Z,90.71
2023-05-01T02:45:42.156Z,90.80
2023-05-01T02:46:42.214Z,91.10
2023-05-01T02:47:42.318Z,91.20
2023-05-01T02:48:42.385Z,90.80
2023-05-01T02:49:42.467Z,90.71
2023-05-01T02:50:42.549Z,89.55
2023-05-01T02:51:42.662Z,88.80
2023-05-01T02:52:42.726Z,87.60
2023-05-01T02:53:42.829Z,88.24
2023-05-01T02:54:42.907Z,88.98
2023-05-01T02:55:43.006Z,87.69
2023-05-01T02:56:43.071Z,87.42
2023-05-01T02:57:43.158Z,86.08
2023-05-01T02:58:43.252Z,84.87
2023-05-01T02:59:43.330Z,84.19
2023-05-01T03:00:49.481Z,83.86
2023-05-01T03:01:43.499Z,83.94
2023-05-01T03:02:43.596Z,83.86
2023-05-01T03:03:43.683Z,83.52
2023-05-01T03:04:43.821Z,82.79
2023-05-01T03:05:43.856Z,83.11
2023-05-01T03:06:43.961Z,82.70
2023-05-01T03:07:44.083Z,82.87
2023-05-01T03:08:44.077Z,81.66
2023-05-01T03:09:44.162Z,80.96
2023-05-01T03:10:44.279Z,80.73
2023-05-01T03:11:44.333Z,81.90
2023-05-01T03:12:44.412Z,83.11
2023-05-01T03:13:44.503Z,84.11
2023-05-01T03:14:44.585Z,85.04
2023-05-01T03:15:44.666Z,84.36
2023-05-01T03:16:44.848Z,85.12
2023-05-01T03:17:44.904Z,85.47
2023-05-01T03:18:44.912Z,86.25
2023-05-01T03:19:45.010Z,85.99
2023-05-01T03:20:45.087Z,85.90
2023-05-01T03:21:45.165Z,85.64
2023-05-01T03:22:45.246Z,84.36
2023-05-01T03:23:45.320Z,84.44
2023-05-01T03:24:45.404Z,84.36
2023-05-01T03:25:45.473Z,84.11
2023-05-01T03:26:45.560Z,83.94
2023-05-01T03:27:45.641Z,83.77
2023-05-01T03:28:45.726Z,83.77
2023-05-01T03:29:45.872Z,84.11
2023-05-01T03:30:45.909Z,84.36
2023-05-01T03:31:51.978Z,84.87
2023-05-01T03:32:46.100Z,84.11
2023-05-01T03:33:46.116Z,83.36
2023-05-01T03:34:46.198Z,82.79
2023-05-01T03:35:46.380Z,81.90
2023-05-01T03:36:46.373Z,81.74
2023-05-01T03:37:46.454Z,81.98
2023-05-01T03:38:46.533Z,82.14
2023-05-01T03:39:46.664Z,78.99
2023-05-01T03:40:46.707Z,74.92
2023-05-01T03:41:46.805Z,72.79
2023-05-01T03:42:46.858Z,73.74
2023-05-01T03:43:47.049Z,74.19
2023-05-01T03:44:47.036Z,76.41
2023-05-01T03:45:47.140Z,77.39
2023-05-01T03:46:47.294Z,78.55
2023-05-01T03:47:47.397Z,78.84
2023-05-01T03:48:47.386Z,78.55
2023-05-01T03:49:47.480Z,78.25
2023-05-01T03:50:47.561Z,78.25
2023-05-01T03:51:47.641Z,78.33
2023-05-01T03:52:47.737Z,78.33
2023-05-01T03:53:47.812Z,78.40
2023-05-01T03:54:47.912Z,77.25
2023-05-01T03:55:47.993Z,77.11
2023-05-01T03:56:48.097Z,76.48
2023-05-01T03:57:48.139Z,76.27
2023-05-01T03:58:48.232Z,78.18
2023-05-01T03:59:48.327Z,78.55
2023-05-01T04:00:48.413Z,77.39
2023-05-01T04:01:48.565Z,77.32
2023-05-01T04:02:54.811Z,77.04
2023-05-01T04:03:48.808Z,77.89
2023-05-01T04:04:48.755Z,78.47
2023-05-01T04:05:48.823Z,77.97
2023-05-01T04:06:48.929Z,78.69
2023-05-01T04:07:48.992Z,78.33
2023-05-01T04:08:49.124Z,77.54
2023-05-01T04:09:49.146Z,76.07
2023-05-01T04:10:49.252Z,75.86
2023-05-01T04:11:49.323Z,74.79
2023-05-01T04:12:49.428Z,75.39
2023-05-01T04:13:49.469Z,74.46
2023-05-01T04:14:49.569Z,74.33
2023-05-01T04:15:49.648Z,73.23
2023-05-01T04:16:49.715Z,73.48
2023-05-01T04:17:49.828Z,73.61
2023-05-01T04:18:49.831Z,74.59
2023-05-01T04:19:49.928Z,73.74
2023-05-01T04:20:50.022Z,73.55
2023-05-01T04:21:50.095Z,73.61
2023-05-01T04:22:50.223Z,73.74
2023-05-01T04:23:50.275Z,72.98
2023-05-01T04:24:50.357Z,73.55
2023-05-01T04:25:50.436Z,73.17
2023-05-01T04:26:50.515Z,73.61
2023-05-01T04:27:50.597Z,73.23
2023-05-01T04:28:50.738Z,73.10
2023-05-01T04:29:50.785Z,72.91
2023-05-01T04:30:50.851Z,72.91
2023-05-01T04:31:50.981Z,72.85
2023-05-01T04:32:51.102Z,72.85
2023-05-01T04:33:57.598Z,71.86
2023-05-01T04:34:51.192Z,72.04
2023-05-01T04:35:51.287Z,72.04
2023-05-01T04:36:51.372Z,72.66
2023-05-01T04:37:51.460Z,74.59
2023-05-01T04:38:51.543Z,75.52
2023-05-01T04:39:51.624Z,76.27
2023-05-01T04:40:51.712Z,75.66
2023-05-01T04:41:51.795Z,75.32
2023-05-01T04:42:51.875Z,75.32
2023-05-01T04:43:51.961Z,75.86
2023-05-01T04:44:52.042Z,75.93
2023-05-01T04:45:52.132Z,75.32
2023-05-01T04:46:52.243Z,74.26
2023-05-01T04:47:52.333Z,73.61
2023-05-01T04:48:52.372Z,72.91
2023-05-01T04:49:52.467Z,72.91
2023-05-01T04:50:52.522Z,72.79
2023-05-01T04:51:52.614Z,72.79
2023-05-01T04:52:52.694Z,73.04
2023-05-01T04:53:52.769Z,73.23
2023-05-01T04:54:52.855Z,72.54
2023-05-01T04:55:52.947Z,71.74
2023-05-01T04:56:52.999Z,70.71
2023-05-01T04:57:53.075Z,71.61
2023-05-01T04:58:53.170Z,70.24
2023-05-01T04:59:53.250Z,69.38
2023-05-01T05:00:53.306Z,69.78
2023-05-01T05:01:53.464Z,69.49
2023-05-01T05:02:53.522Z,69.04
2023-05-01T05:03:53.712Z,68.81
2023-05-01T05:04:59.612Z,68.98
2023-05-01T05:05:53.737Z,67.71
2023-05-01T05:06:53.834Z,67.65
2023-05-01T05:07:53.884Z,67.65
2023-05-01T05:08:53.967Z,67.38
2023-05-01T05:09:54.185Z,67.11
2023-05-01T05:10:54.172Z,66.32
2023-05-01T05:11:54.224Z,65.55
2023-05-01T05:12:54.318Z,64.69
2023-05-01T05:13:54.411Z,64.99
2023-05-01T05:14:54.485Z,65.35
2023-05-01T05:15:54.636Z,64.60
2023-05-01T05:16:54.723Z,64.40
2023-05-01T05:17:56.575Z,64.06
2023-05-01T05:18:54.816Z,63.38
2023-05-01T05:19:55.431Z,62.63
2023-05-01T05:20:55.000Z,60.04
2023-05-01T05:21:55.096Z,59.54
2023-05-01T05:22:55.151Z,60.43
2023-05-01T05:23:55.239Z,59.87
2023-05-01T05:24:55.291Z,61.26
2023-05-01T05:25:55.379Z,60.78
2023-05-01T05:26:55.468Z,61.22
2023-05-01T05:27:55.501Z,61.40
2023-05-01T05:28:55.586Z,61.00
2023-05-01T05:29:55.812Z,61.44
2023-05-01T05:30:55.736Z,61.13
2023-05-01T05:31:55.868Z,61.76
2023-05-01T05:32:55.954Z,61.58
2023-05-01T05:33:55.993Z,61.62
2023-05-01T05:34:56.082Z,61.62
2023-05-01T05:36:02.187Z,60.26
2023-05-01T05:36:56.242Z,60.52
2023-05-01T05:37:56.329Z,61.04
2023-05-01T05:38:56.389Z,61.44
2023-05-01T05:39:56.724Z,62.68
2023-05-01T05:40:56.556Z,63.05
2023-05-01T05:41:56.656Z,63.53
2023-05-01T05:42:56.777Z,63.24
2023-05-01T05:43:56.817Z,62.26
2023-05-01T05:44:56.897Z,61.71
2023-05-01T05:45:57.066Z,62.49
2023-05-01T05:46:57.049Z,63.38
2023-05-01T05:47:57.249Z,63.67
2023-05-01T05:48:57.206Z,62.77
2023-05-01T05:49:57.604Z,62.72
2023-05-01T05:50:57.377Z,62.58
2023-05-01T05:51:57.468Z,62.40
2023-05-01T05:52:57.564Z,62.58
2023-05-01T05:53:57.646Z,62.26
2023-05-01T05:54:57.714Z,62.35
2023-05-01T05:55:57.796Z,62.91
2023-05-01T05:56:57.878Z,63.10
2023-05-01T05:57:57.964Z,62.58
2023-05-01T05:58:58.115Z,62.44
2023-05-01T05:59:58.271Z,61.85
2023-05-01T06:00:58.180Z,62.96
2023-05-01T06:01:58.331Z,64.30
2023-05-01T06:02:58.400Z,64.06
2023-05-01T06:03:58.474Z,62.44
2023-05-01T06:04:58.505Z,62.31
2023-05-01T06:05:58.841Z,63.05
2023-05-01T06:07:04.733Z,64.25
2023-05-01T06:07:58.719Z,65.19
2023-05-01T06:08:58.804Z,65.86
2023-05-01T06:09:58.910Z,66.90
2023-05-01T06:10:58.985Z,67.81
2023-05-01T06:11:59.078Z,67.33
2023-05-01T06:13:06.612Z,66.48
2023-05-01T06:13:59.257Z,66.43
2023-05-01T06:14:59.336Z,65.86
2023-05-01T06:15:59.440Z,66.32
2023-05-01T06:16:59.503Z,66.32
2023-05-01T06:17:59.695Z,66.01
2023-05-01T06:18:59.675Z,66.43
2023-05-01T06:19:59.847Z,66.53
2023-05-01T06:20:59.869Z,66.32
2023-05-01T06:21:59.918Z,66.85
2023-05-01T06:22:59.989Z,66.58
2023-05-01T06:24:00.077Z,67.01
2023-05-01T06:25:00.154Z,66.69
2023-05-01T06:26:00.254Z,66.22
2023-05-01T06:27:01.445Z,66.32
2023-05-01T06:28:00.421Z,66.32
2023-05-01T06:29:00.505Z,67.06
2023-05-01T06:30:00.620Z,67.01
2023-05-01T06:31:00.811Z,67.71
2023-05-01T06:32:00.811Z,67.33
2023-05-01T06:33:00.868Z,67.60
2023-05-01T06:34:00.917Z,67.38
2023-05-01T06:35:01.015Z,68.53
2023-05-01T06:36:01.114Z,66.74
2023-05-01T06:37:01.147Z,68.36
2023-05-01T06:38:07.735Z,66.69
2023-05-01T06:39:01.324Z,65.55
2023-05-01T06:40:01.407Z,65.25
2023-05-01T06:41:01.508Z,64.99
2023-05-01T06:42:01.599Z,65.40
2023-05-01T06:43:01.691Z,65.19
2023-05-01T06:44:01.754Z,65.19
2023-05-01T06:45:01.860Z,64.60
2023-05-01T06:46:01.923Z,63.33
2023-05-01T06:47:02.108Z,64.55
2023-05-01T06:48:02.111Z,64.69
2023-05-01T06:49:02.176Z,65.25
2023-05-01T06:50:05.080Z,63.96
2023-05-01T06:51:02.343Z,63.00
2023-05-01T06:52:02.436Z,62.82
2023-05-01T06:53:02.537Z,61.89
2023-05-01T06:54:02.601Z,61.89
2023-05-01T06:55:02.706Z,63.57
2023-05-01T06:56:02.761Z,63.53
2023-05-01T06:57:02.843Z,63.67
2023-05-01T06:58:12.428Z,63.62
2023-05-01T06:59:03.026Z,63.38
2023-05-01T07:00:03.083Z,63.96
2023-05-01T07:01:03.205Z,63.53
2023-05-01T07:02:03.354Z,62.91
2023-05-01T07:03:03.402Z,63.29
2023-05-01T07:04:03.426Z,61.22
2023-05-01T07:05:03.514Z,61.40
2023-05-01T07:06:03.601Z,60.43
2023-05-01T07:07:03.650Z,60.09
2023-05-01T07:08:03.747Z,58.26
2023-05-01T07:09:10.304Z,58.46
2023-05-01T07:10:03.914Z,58.42
2023-05-01T07:11:03.972Z,56.81
2023-05-01T07:12:04.063Z,56.62
2023-05-01T07:13:04.162Z,54.85
2023-05-01T07:14:04.262Z,55.87
2023-05-01T07:15:04.321Z,55.10
2023-05-01T07:16:04.450Z,55.17
2023-05-01T07:17:04.475Z,54.75
2023-05-01T07:18:04.609Z,54.11
2023-05-01T07:19:04.656Z,52.47
2023-05-01T07:20:04.743Z,53.03
2023-05-01T07:21:04.838Z,52.17
2023-05-01T07:22:04.903Z,50.97
2023-05-01T07:23:07.279Z,49.60
2023-05-01T07:24:05.075Z,49.11
2023-05-01T07:25:05.174Z,47.42
2023-05-01T07:26:05.231Z,46.92
2023-05-01T07:27:05.336Z,47.13
2023-05-01T07:28:05.394Z,46.46
2023-05-01T07:29:05.556Z,45.46
2023-05-01T07:30:05.601Z,45.17
2023-05-01T07:31:05.679Z,44.40
2023-05-01T07:32:05.808Z,43.53
2023-05-01T07:33:05.952Z,42.61
2023-05-01T07:34:05.969Z,42.19
2023-05-01T07:35:06.042Z,42.57
2023-05-01T07:36:06.149Z,41.73
2023-05-01T07:37:06.231Z,40.80
2023-05-01T07:38:06.322Z,39.03
2023-05-01T07:39:06.427Z,39.36
2023-05-01T07:40:13.039Z,39.32
2023-05-01T07:41:06.598Z,39.39
2023-05-01T07:42:06.679Z,39.47
2023-05-01T07:43:06.789Z,39.06
2023-05-01T07:44:07.610Z,38.18
2023-05-01T07:45:06.935Z,38.32
2023-05-01T07:46:07.069Z,37.47
2023-05-01T07:47:07.110Z,37.04
2023-05-01T07:48:07.295Z,37.94
2023-05-01T07:49:07.327Z,37.17
2023-05-01T07:50:07.380Z,36.31
2023-05-01T07:51:07.478Z,34.84
2023-05-01T07:52:07.603Z,33.46
2023-05-01T07:53:07.657Z,33.68
2023-05-01T07:54:07.774Z,33.07
2023-05-01T07:55:07.839Z,32.69
2023-05-01T07:56:07.902Z,32.99
2023-05-01T07:57:07.999Z,33.46
2023-05-01T07:58:08.051Z,32.94
2023-05-01T07:59:08.143Z,32.69
2023-05-01T08:00:08.208Z,32.84
2023-05-01T08:01:08.301Z,32.66
2023-05-01T08:02:08.413Z,32.61
2023-05-01T08:03:08.795Z,33.02
2023-05-01T08:04:08.705Z,32.79
2023-05-01T08:05:08.634Z,33.28
2023-05-01T08:06:08.766Z,34.06
2023-05-01T08:07:08.956Z,34.33
2023-05-01T08:08:08.915Z,34.81
2023-05-01T08:09:09.014Z,35.28
2023-05-01T08:10:09.139Z,35.19
2023-05-01T08:11:15.881Z,35.07
2023-05-01T08:12:09.283Z,34.73
2023-05-01T08:13:09.342Z,35.97
2023-05-01T08:14:09.435Z,35.67
2023-05-01T08:15:09.536Z,36.69
2023-05-01T08:16:09.619Z,37.98
2023-05-01T08:17:09.663Z,38.18
2023-05-01T08:18:09.865Z,37.40
2023-05-01T08:19:09.816Z,37.71
2023-05-01T08:20:09.909Z,38.56
2023-05-01T08:21:09.982Z,38.99
2023-05-01T08:22:10.041Z,38.15
2023-05-01T08:23:10.132Z,36.34
2023-05-01T08:24:10.225Z,35.28
2023-05-01T08:25:10.329Z,34.08
2023-05-01T08:26:10.413Z,33.57
2023-05-01T08:27:10.462Z,32.71
2023-05-01T08:28:10.556Z,31.68
2023-05-01T08:29:10.658Z,30.94
2023-05-01T08:30:10.747Z,31.00
2023-05-01T08:31:10.855Z,30.76
2023-05-01T08:32:10.944Z,30.47
2023-05-01T08:33:11.050Z,30.87
2023-05-01T08:34:11.127Z,31.12
2023-05-01T08:35:11.272Z,31.10
2023-05-01T08:36:11.306Z,30.94
2023-05-01T08:37:11.391Z,30.69
2023-05-01T08:38:11.512Z,30.14
2023-05-01T08:39:11.573Z,29.08
2023-05-01T08:40:11.649Z,29.02
2023-05-01T08:41:11.735Z,29.35
2023-05-01T08:42:17.822Z,29.18
2023-05-01T08:43:11.894Z,29.16
2023-05-01T08:44:11.987Z,27.91
2023-05-01T08:45:12.049Z,28.42
2023-05-01T08:46:12.172Z,29.08
2023-05-01T08:47:12.484Z,29.04
2023-05-01T08:48:12.325Z,29.72
2023-05-01T08:49:12.379Z,29.91
2023-05-01T08:50:12.488Z,29.59
2023-05-01T08:51:12.516Z,29.70
2023-05-01T08:52:12.606Z,30.08
2023-05-01T08:53:12.665Z,30.49
2023-05-01T08:54:12.720Z,30.82
2023-05-01T08:55:12.782Z,31.07
2023-05-01T08:56:12.875Z,31.00
2023-05-01T08:57:12.965Z,31.40
2023-05-01T08:58:13.066Z,30.96
2023-05-01T08:59:13.121Z,31.63
2023-05-01T09:00:13.217Z,32.06
2023-05-01T09:01:13.385Z,32.02
2023-05-01T09:02:13.419Z,32.56
2023-05-01T09:03:13.514Z,32.41
2023-05-01T09:04:13.607Z,32.09
2023-05-01T09:05:13.614Z,31.47
2023-05-01T09:06:13.794Z,31.19
2023-05-01T09:07:13.784Z,31.26
2023-05-01T09:08:13.899Z,31.61
2023-05-01T09:09:14.663Z,30.62
2023-05-01T09:10:14.076Z,30.87
2023-05-01T09:11:14.125Z,30.98
2023-05-01T09:12:14.231Z,30.80
2023-05-01T09:13:21.299Z,30.87
2023-05-01T09:14:14.411Z,31.19
2023-05-01T09:15:14.505Z,31.51
2023-05-01T09:16:14.637Z,31.56
2023-05-01T09:17:14.657Z,31.47
2023-05-01T09:18:14.895Z,31.47
2023-05-01T09:19:14.853Z,32.48
2023-05-01T09:20:14.957Z,33.81
2023-05-01T09:21:15.047Z,34.42
2023-05-01T09:22:15.141Z,32.89
2023-05-01T09:23:15.196Z,31.30
2023-05-01T09:24:15.292Z,31.26
2023-05-01T09:25:15.393Z,31.49
2023-05-01T09:26:15.445Z,31.66
2023-05-01T09:27:15.548Z,30.67
2023-05-01T09:28:15.604Z,30.62
2023-05-01T09:29:15.693Z,29.86
2023-05-01T09:30:15.762Z,30.60
2023-05-01T09:31:15.841Z,30.27
2023-05-01T09:32:15.917Z,30.06
2023-05-01T09:33:16.002Z,30.58
2023-05-01T09:34:16.088Z,30.34
2023-05-01T09:35:16.146Z,30.94
2023-05-01T09:36:16.239Z,31.73
2023-05-01T09:37:16.356Z,31.21
2023-05-01T09:38:16.447Z,31.37
2023-05-01T09:39:16.520Z,31.33
2023-05-01T09:40:16.606Z,30.42
2023-05-01T09:41:16.652Z,30.42
2023-05-01T09:42:16.746Z,31.35
2023-05-01T09:43:16.845Z,31.10
2023-05-01T09:44:22.917Z,31.47
2023-05-01T09:45:16.995Z,30.98
2023-05-01T09:46:17.172Z,30.36
2023-05-01T09:47:17.152Z,30.98
2023-05-01T09:48:17.244Z,30.87
2023-05-01T09:49:17.313Z,29.68
2023-05-01T09:50:17.420Z,29.55
2023-05-01T09:51:17.471Z,29.41
2023-05-01T09:52:17.563Z,29.04
2023-05-01T09:53:17.657Z,28.63
2023-05-01T09:54:17.749Z,28.73
2023-05-01T09:55:17.841Z,29.76
2023-05-01T09:56:17.916Z,31.26
2023-05-01T09:57:17.992Z,31.75
2023-05-01T09:58:18.098Z,32.14
2023-05-01T09:59:18.200Z,32.19
2023-05-01T10:00:18.292Z,31.87
2023-05-01T10:01:18.387Z,31.80
2023-05-01T10:02:18.582Z,31.97
2023-05-01T10:03:18.585Z,32.14
2023-05-01T10:04:18.663Z,31.77
2023-05-01T10:05:18.721Z,31.24
2023-05-01T10:06:18.811Z,30.51
2023-05-01T10:07:18.886Z,29.91
2023-05-01T10:08:18.978Z,30.96
2023-05-01T10:09:19.072Z,30.21
2023-05-01T10:10:19.168Z,30.18
2023-05-01T10:11:19.263Z,30.21
2023-05-01T10:12:19.355Z,30.96
2023-05-01T10:13:19.429Z,30.27
2023-05-01T10:14:19.524Z,30.16
2023-05-01T10:15:26.918Z,30.23
2023-05-01T10:16:19.729Z,29.97
2023-05-01T10:17:19.944Z,29.51
2023-05-01T10:18:19.925Z,29.39
2023-05-01T10:19:19.938Z,29.49
2023-05-01T10:20:20.022Z,30.36
2023-05-01T10:21:20.142Z,31.12
2023-05-01T10:22:20.201Z,30.01
2023-05-01T10:23:20.295Z,30.73
2023-05-01T10:24:20.396Z,30.69
2023-05-01T10:25:20.490Z,30.21
2023-05-01T10:26:20.605Z,30.80
2023-05-01T10:27:20.656Z,29.97
2023-05-01T10:28:20.706Z,30.25
2023-05-01T10:29:20.824Z,29.89
2023-05-01T10:30:20.894Z,29.35
2023-05-01T10:31:21.051Z,28.48
2023-05-01T10:32:21.095Z,28.04
2023-05-01T10:33:21.261Z,28.40
2023-05-01T10:34:21.236Z,29.47
2023-05-01T10:35:21.328Z,30.53
2023-05-01T10:36:21.420Z,30.10
2023-05-01T10:37:21.546Z,29.76
2023-05-01T10:38:21.609Z,29.04
2023-05-01T10:39:21.686Z,28.79
2023-05-01T10:40:21.768Z,29.57
2023-05-01T10:41:21.859Z,29.95
2023-05-01T10:42:21.974Z,29.89
2023-05-01T10:43:22.028Z,29.68
2023-05-01T10:44:22.123Z,29.26
2023-05-01T10:45:22.226Z,29.18
2023-05-01T10:46:28.454Z,29.35
2023-05-01T10:47:22.435Z,28.55
2023-05-01T10:48:22.482Z,28.46
2023-05-01T10:49:22.548Z,28.69
2023-05-01T10:50:22.638Z,29.28
2023-05-01T10:51:26.578Z,29.72
2023-05-01T10:52:22.810Z,29.14
2023-05-01T10:53:22.901Z,29.39
2023-05-01T10:54:22.989Z,29.08
2023-05-01T10:55:23.096Z,29.08
2023-05-01T10:56:23.174Z,30.36
2023-05-01T10:57:23.258Z,31.07
2023-05-01T10:58:23.351Z,31.10
2023-05-01T10:59:23.460Z,31.37
2023-05-01T11:00:23.537Z,30.62
2023-05-01T11:01:23.647Z,31.85
2023-05-01T11:02:23.834Z,31.21
2023-05-01T11:03:23.833Z,31.28
2023-05-01T11:04:23.909Z,30.69
2023-05-01T11:05:35.772Z,29.72
2023-05-01T11:06:24.235Z,29.39
2023-05-01T11:07:24.234Z,28.96
2023-05-01T11:08:24.280Z,29.41
2023-05-01T11:09:24.335Z,29.61
2023-05-01T11:10:24.432Z,29.89
2023-05-01T11:11:24.525Z,30.32
2023-05-01T11:12:24.616Z,29.86
2023-05-01T11:13:24.795Z,30.12
2023-05-01T11:14:24.806Z,29.86
2023-05-01T11:15:24.923Z,30.14
2023-05-01T11:16:25.023Z,30.21
2023-05-01T11:17:31.139Z,29.84
2023-05-01T11:18:25.166Z,30.08
2023-05-01T11:19:25.721Z,30.76
2023-05-01T11:20:25.358Z,30.36
2023-05-01T11:21:25.449Z,30.10
2023-05-01T11:22:25.546Z,29.57
2023-05-01T11:23:25.739Z,29.84
2023-05-01T11:24:25.741Z,29.22
2023-05-01T11:25:25.838Z,28.94
2023-05-01T11:26:25.927Z,29.22
2023-05-01T11:27:26.022Z,29.04
2023-05-01T11:28:26.113Z,29.16
2023-05-01T11:29:26.214Z,28.84
2023-05-01T11:30:26.280Z,28.73
2023-05-01T11:31:26.402Z,27.32
2023-05-01T11:32:26.494Z,27.48
2023-05-01T11:33:26.543Z,27.17
2023-05-01T11:34:26.623Z,27.60
2023-05-01T11:35:26.726Z,27.19
2023-05-01T11:36:26.779Z,27.49
2023-05-01T11:37:26.874Z,26.86
2023-05-01T11:38:26.968Z,26.93
2023-05-01T11:39:27.033Z,26.85
2023-05-01T11:40:27.127Z,26.92
2023-05-01T11:41:27.270Z,29.10
2023-05-01T11:42:27.901Z,29.51
2023-05-01T11:43:27.373Z,29.68
2023-05-01T11:44:27.445Z,30.27
2023-05-01T11:45:27.558Z,29.93
2023-05-01T11:46:27.804Z,29.41
2023-05-01T11:47:27.745Z,28.40
2023-05-01T11:48:33.774Z,28.17
2023-05-01T11:49:27.871Z,28.08
2023-05-01T11:50:27.969Z,27.46
2023-05-01T11:51:28.020Z,26.74
2023-05-01T11:52:28.118Z,26.02
2023-05-01T11:53:28.209Z,25.81
2023-05-01T11:54:28.309Z,25.47
2023-05-01T11:55:28.397Z,25.41
2023-05-01T11:56:28.493Z,25.76
2023-05-01T11:57:28.550Z,26.54
2023-05-01T11:58:28.642Z,27.35
2023-05-01T11:59:28.757Z,27.58
2023-05-01T12:00:28.843Z,26.74
2023-05-01T12:01:28.914Z,26.33
2023-05-01T12:02:29.061Z,27.10
2023-05-01T12:03:29.246Z,26.71
2023-05-01T12:04:32.331Z,26.43
2023-05-01T12:05:29.234Z,26.00
2023-05-01T12:06:29.361Z,24.28
2023-05-01T12:07:29.366Z,23.91
2023-05-01T12:08:29.470Z,23.46
2023-05-01T12:09:29.565Z,23.08
2023-05-01T12:10:29.647Z,22.88
2023-05-01T12:11:29.749Z,22.78
2023-05-01T12:12:29.846Z,23.18
2023-05-01T12:13:29.930Z,23.33
2023-05-01T12:14:30.029Z,22.98
2023-05-01T12:15:30.123Z,22.75
2023-05-01T12:16:30.285Z,23.70
2023-05-01T12:17:30.415Z,23.66
2023-05-01T12:18:30.345Z,23.87
2023-05-01T12:19:36.424Z,23.79
2023-05-01T12:20:30.506Z,23.75
2023-05-01T12:21:30.604Z,23.72
2023-05-01T12:22:30.718Z,23.64
2023-05-01T12:23:30.778Z,24.54
2023-05-01T12:24:30.864Z,24.77
2023-05-01T12:25:30.952Z,24.59
2023-05-01T12:26:31.094Z,24.91
2023-05-01T12:27:31.141Z,25.42
2023-05-01T12:28:31.191Z,25.55
2023-05-01T12:29:31.287Z,25.88
2023-05-01T12:30:31.465Z,26.16
2023-05-01T12:31:31.473Z,25.53
2023-05-01T12:32:31.551Z,24.84
2023-05-01T12:33:31.629Z,25.26
2023-05-01T12:34:31.671Z,25.24
2023-05-01T12:35:31.768Z,25.05
2023-05-01T12:36:31.912Z,25.53
2023-05-01T12:37:31.941Z,25.88
2023-05-01T12:38:32.020Z,26.16
2023-05-01T12:39:32.114Z,26.58
2023-05-01T12:40:32.175Z,26.54
2023-05-01T12:41:32.266Z,26.85
2023-05-01T12:42:32.357Z,27.51
2023-05-01T12:43:32.440Z,27.49
2023-05-01T12:44:32.491Z,27.30
2023-05-01T12:45:32.586Z,27.35
2023-05-01T12:46:32.715Z,26.86
2023-05-01T12:47:32.753Z,26.18
2023-05-01T12:48:32.845Z,26.43
2023-05-01T12:49:32.934Z,26.20
2023-05-01T12:50:39.502Z,26.07
2023-05-01T12:51:33.119Z,26.00
2023-05-01T12:52:33.209Z,26.25
2023-05-01T12:53:33.308Z,25.73